Time;durP1;ratioP1;P1;durP2;ratioP2;P2;SDS_P1;SDS_P2;PMS_P1;PMS_P2;Temp;Humidity;BMP_temperature;BMP_pressure;BME280_temperature;BME280_humidity;BME280_pressure;Samples;Min_cycle;Max_cycle;Signal;HPM_P1;HPM_P2
2022/09/07 00:01:10;;;;;;;1.15;0.10;;;24.20;58.00;;;;;;5045824;28;20099;-60
2022/09/07 00:03:37;;;;;;;0.65;0.20;;;24.10;57.90;;;;;;5052027;28;20037;-60
2022/09/07 00:06:09;;;;;;;0.77;0.32;;;24.20;58.10;;;;;;5049413;28;20124;-60
2022/09/07 00:08:36;;;;;;;1.80;0.17;;;24.10;58.10;;;;;;5049742;28;20506;-60
2022/09/07 00:11:06;;;;;;;1.30;1.00;;;24.10;58.10;;;;;;5049260;28;20417;-60
2022/09/07 00:13:37;;;;;;;1.48;0.30;;;24.10;58.30;;;;;;5049350;28;20065;-61
2022/09/07 00:16:08;;;;;;;0.60;0.57;;;24.10;58.40;;;;;;5048538;28;20037;-60
2022/09/07 00:18:35;;;;;;;4.38;0.10;;;24.00;58.50;;;;;;5054078;28;20151;-60
2022/09/07 00:21:05;;;;;;;5.50;0.15;;;24.00;58.50;;;;;;5049983;28;20068;-60
2022/09/07 00:23:33;;;;;;;2.47;0.25;;;24.00;58.60;;;;;;5049487;28;20190;-60
2022/09/07 00:26:01;;;;;;;0.17;0.10;;;23.90;58.70;;;;;;5048836;28;20037;-59
2022/09/07 00:28:28;;;;;;;2.08;0.10;;;23.90;58.90;;;;;;5053451;28;20529;-61
2022/09/07 00:30:55;;;;;;;2.92;0.85;;;23.90;59.00;;;;;;5048905;28;20049;-61
2022/09/07 00:33:23;;;;;;;0.25;0.10;;;23.90;59.20;;;;;;5049200;28;20037;-62
2022/09/07 00:35:50;;;;;;;0.68;0.20;;;23.90;59.40;;;;;;5049565;28;20807;-61
2022/09/07 00:38:18;;;;;;;1.98;0.22;;;23.90;59.50;;;;;;5049993;28;20437;-61
2022/09/07 00:40:45;;;;;;;1.00;0.10;;;23.90;59.70;;;;;;5048828;28;20067;-61
2022/09/07 00:43:16;;;;;;;3.17;0.52;;;23.80;59.70;;;;;;5049527;28;20130;-61
2022/09/07 00:45:43;;;;;;;2.40;0.20;;;23.80;59.70;;;;;;5031169;28;20041;-62
2022/09/07 00:48:15;;;;;;;3.50;0.20;;;23.80;59.80;;;;;;5022190;28;20703;-61
2022/09/07 00:50:47;;;;;;;3.58;0.10;;;23.80;60.40;;;;;;5049020;28;20606;-62
2022/09/07 00:53:18;;;;;;;3.10;0.10;;;23.80;59.90;;;;;;5042825;28;20417;-62
2022/09/07 00:55:49;;;;;;;0.85;0.10;;;23.70;59.90;;;;;;5012482;28;1089024;-60
2022/09/07 00:58:16;;;;;;;0.73;0.10;;;23.70;59.90;;;;;;5048813;28;20126;-62
2022/09/07 01:00:46;;;;;;;1.63;0.10;;;23.70;59.80;;;;;;5049443;28;20040;-62
2022/09/07 01:03:15;;;;;;;1.30;0.57;;;23.70;59.90;;;;;;5025197;28;20088;-63
2022/09/07 01:05:47;;;;;;;1.75;0.35;;;23.70;59.80;;;;;;5049734;28;20064;-60
2022/09/07 01:08:15;;;;;;;2.50;0.10;;;23.70;59.60;;;;;;5051548;28;20044;-62
2022/09/07 01:10:42;;;;;;;2.40;0.30;;;23.60;59.40;;;;;;5049131;28;20136;-60
2022/09/07 01:13:09;;;;;;;0.90;0.20;;;23.60;59.30;;;;;;5018510;28;20092;-59
2022/09/07 01:15:46;;;;;;;0.82;0.65;;;23.60;59.20;;;;;;5048400;28;20052;-60
2022/09/07 01:18:22;;;;;;;2.15;0.20;;;23.60;59.10;;;;;;5049332;28;20175;-61
2022/09/07 01:21:09;;;;;;;2.45;0.20;;;23.60;58.70;;;;;;5054391;28;20155;-61
2022/09/07 01:24:11;;;;;;;1.15;0.20;;;23.60;58.40;;;;;;5050033;28;20654;-61
2022/09/07 01:27:22;;;;;;;1.42;0.38;;;23.60;58.10;;;;;;5028850;28;20049;-61
2022/09/07 01:29:55;;;;;;;0.63;0.20;;;23.50;57.90;;;;;;5046407;28;20406;-61
2022/09/07 01:32:31;;;;;;;0.60;0.05;;;23.50;57.80;;;;;;5049579;28;20099;-60
2022/09/07 01:35:02;;;;;;;2.80;0.13;;;23.40;57.60;;;;;;5046396;28;20041;-61
2022/09/07 01:37:34;;;;;;;1.02;0.10;;;23.40;57.50;;;;;;5043566;28;20042;-60
2022/09/07 01:40:06;;;;;;;1.52;0.10;;;23.40;57.30;;;;;;5042371;28;20690;-61
2022/09/07 01:42:44;;;;;;;0.82;0.10;;;23.40;57.20;;;;;;5049208;28;20128;-61
2022/09/07 01:45:13;;;;;;;1.13;0.20;;;23.40;57.10;;;;;;5049409;28;20044;-62
2022/09/07 01:47:46;;;;;;;0.40;0.10;;;23.30;57.00;;;;;;5047038;28;20037;-62
2022/09/07 01:50:19;;;;;;;4.55;0.17;;;23.30;57.00;;;;;;5051913;28;20115;-61
2022/09/07 01:52:52;;;;;;;3.35;0.10;;;23.30;57.00;;;;;;5053946;28;20052;-62
2022/09/07 01:55:24;;;;;;;4.75;0.10;;;23.20;56.90;;;;;;5051697;28;20040;-61
2022/09/07 01:58:00;;;;;;;3.00;0.10;;;23.20;57.00;;;;;;5056446;28;20124;-61
2022/09/07 02:00:27;;;;;;;7.93;0.10;;;23.20;57.00;;;;;;5048745;28;20090;-60
2022/09/07 02:02:59;;;;;;;0.57;0.10;;;23.10;57.00;;;;;;5052663;28;20047;-61
2022/09/07 02:05:32;;;;;;;1.75;0.20;;;23.10;57.00;;;;;;5048473;28;20049;-62
2022/09/07 02:08:03;;;;;;;1.25;0.20;;;23.10;57.00;;;;;;5048308;28;20045;-61
2022/09/07 02:10:34;;;;;;;3.97;0.10;;;23.10;57.00;;;;;;5047578;28;20044;-60
2022/09/07 02:13:06;;;;;;;0.82;0.55;;;23.10;57.10;;;;;;5042893;28;20417;-61
2022/09/07 02:15:42;;;;;;;1.27;0.10;;;23.10;57.20;;;;;;5048403;28;20056;-62
2022/09/07 02:18:12;;;;;;;0.90;0.10;;;23.00;57.20;;;;;;5048378;28;20041;-61
2022/09/07 02:20:43;;;;;;;2.50;0.30;;;23.00;57.30;;;;;;5051178;28;20044;-60
2022/09/07 02:23:16;;;;;;;3.17;0.10;;;22.90;57.30;;;;;;5048121;28;20572;-60
2022/09/07 02:25:47;;;;;;;3.42;0.10;;;22.90;57.30;;;;;;5047571;28;20509;-61
2022/09/07 02:28:18;;;;;;;2.13;0.10;;;22.90;57.30;;;;;;5048217;28;20045;-60
2022/09/07 02:30:45;;;;;;;3.83;0.17;;;22.90;57.20;;;;;;5047924;28;20049;-61
2022/09/07 02:33:12;;;;;;;1.30;0.28;;;22.90;57.30;;;;;;5048137;28;20726;-60
2022/09/07 02:35:40;;;;;;;3.50;0.10;;;22.90;57.30;;;;;;5048161;28;20059;-62
2022/09/07 02:38:08;;;;;;;1.73;1.00;;;22.90;57.40;;;;;;5047700;28;20045;-62
2022/09/07 02:40:36;;;;;;;2.88;0.10;;;22.90;57.30;;;;;;5047823;28;20775;-62
2022/09/07 02:43:06;;;;;;;1.58;0.10;;;22.90;57.30;;;;;;5048199;28;20057;-61
2022/09/07 02:45:44;;;;;;;2.40;0.10;;;22.80;57.40;;;;;;5047231;28;20044;-60
2022/09/07 02:48:19;;;;;;;2.30;0.63;;;22.80;57.30;;;;;;5048006;28;20099;-61
2022/09/07 02:50:56;;;;;;;4.43;0.10;;;22.70;57.30;;;;;;5041878;28;20094;-60
2022/09/07 02:53:48;;;;;;;3.78;0.43;;;22.70;57.30;;;;;;5047993;28;20049;-60
2022/09/07 02:56:29;;;;;;;2.20;0.10;;;22.70;57.30;;;;;;5047680;28;20053;-60
2022/09/07 02:59:07;;;;;;;0.28;0.10;;;22.70;57.40;;;;;;5043697;28;20043;-61
2022/09/07 03:01:46;;;;;;;0.95;0.00;;;22.70;57.50;;;;;;5047226;28;20037;-62
2022/09/07 03:04:18;;;;;;;2.20;0.30;;;22.70;57.40;;;;;;5047596;28;20087;-61
2022/09/07 03:06:51;;;;;;;3.05;0.10;;;22.70;57.40;;;;;;5047183;28;20574;-61
2022/09/07 03:09:22;;;;;;;4.68;0.30;;;22.70;57.40;;;;;;5048408;28;20068;-61
2022/09/07 03:11:50;;;;;;;1.33;0.30;;;22.60;57.40;;;;;;5047220;28;20083;-61
2022/09/07 03:14:19;;;;;;;1.30;0.10;;;22.60;57.40;;;;;;5051439;28;20099;-61
2022/09/07 03:16:49;;;;;;;0.70;0.08;;;22.60;57.50;;;;;;5048555;28;20128;-61
2022/09/07 03:19:17;;;;;;;4.07;0.20;;;22.60;57.40;;;;;;5047058;28;20067;-61
2022/09/07 03:21:44;;;;;;;0.93;0.10;;;22.60;57.40;;;;;;5046974;28;20076;-61
2022/09/07 03:24:11;;;;;;;3.35;0.57;;;22.60;57.30;;;;;;5047678;28;20037;-62
2022/09/07 03:26:41;;;;;;;0.95;0.10;;;22.60;57.40;;;;;;5047107;28;20083;-61
2022/09/07 03:29:09;;;;;;;3.13;0.10;;;22.60;57.50;;;;;;5047099;28;20048;-60
2022/09/07 03:31:36;;;;;;;2.78;0.10;;;22.50;57.40;;;;;;5039267;28;20461;-61
2022/09/07 03:34:04;;;;;;;2.22;0.40;;;22.50;57.40;;;;;;5037050;28;20055;-59
2022/09/07 03:36:32;;;;;;;0.73;0.05;;;22.50;57.40;;;;;;5046576;28;20395;-60
2022/09/07 03:39:00;;;;;;;2.13;0.10;;;22.50;57.50;;;;;;5054245;28;20064;-60
2022/09/07 03:41:28;;;;;;;0.82;0.10;;;22.50;57.50;;;;;;5051291;28;20037;-60
2022/09/07 03:43:55;;;;;;;2.17;0.10;;;22.50;57.50;;;;;;5051307;28;20387;-60
2022/09/07 03:46:22;;;;;;;2.95;0.88;;;22.40;57.50;;;;;;5052685;28;20051;-60
2022/09/07 03:48:50;;;;;;;1.00;0.10;;;22.40;57.50;;;;;;5048750;28;20138;-61
2022/09/07 03:51:18;;;;;;;0.93;0.10;;;22.40;57.60;;;;;;5046741;28;20048;-60
2022/09/07 03:53:47;;;;;;;3.00;0.13;;;22.40;57.60;;;;;;5051106;28;20076;-61
2022/09/07 03:56:17;;;;;;;0.80;0.10;;;22.40;57.60;;;;;;5053529;28;20071;-60
2022/09/07 03:58:45;;;;;;;2.65;0.10;;;22.40;57.60;;;;;;5052530;28;20048;-60
2022/09/07 04:01:14;;;;;;;1.00;0.30;;;22.30;57.60;;;;;;5050889;28;20572;-60
2022/09/07 04:03:41;;;;;;;4.03;0.10;;;22.40;57.80;;;;;;5027400;28;20041;-60
2022/09/07 04:06:08;;;;;;;4.32;0.13;;;22.30;57.60;;;;;;5049844;28;20147;-60
2022/09/07 04:08:39;;;;;;;3.33;0.10;;;22.30;57.60;;;;;;5051822;28;20052;-60
2022/09/07 04:11:08;;;;;;;2.05;0.10;;;22.30;57.60;;;;;;5050804;28;20087;-61
2022/09/07 04:13:37;;;;;;;1.27;0.20;;;22.30;57.70;;;;;;5031202;28;20045;-61
2022/09/07 04:16:12;;;;;;;2.72;0.20;;;22.30;57.70;;;;;;5057091;28;20121;-60
2022/09/07 04:18:39;;;;;;;5.18;0.10;;;22.20;57.70;;;;;;5049147;28;20568;-61
2022/09/07 04:21:06;;;;;;;1.92;0.08;;;22.20;57.80;;;;;;5054406;28;20091;-62
2022/09/07 04:23:34;;;;;;;1.88;0.15;;;22.20;57.90;;;;;;5051278;28;20128;-61
2022/09/07 04:26:02;;;;;;;1.60;0.50;;;22.20;57.90;;;;;;5050400;28;20049;-60
2022/09/07 04:28:29;;;;;;;4.70;0.10;;;22.20;57.90;;;;;;5050083;28;20042;-61
2022/09/07 04:31:00;;;;;;;1.15;0.40;;;22.10;57.90;;;;;;5047919;28;20037;-62
2022/09/07 04:33:27;;;;;;;4.40;0.50;;;22.10;58.00;;;;;;5049221;28;20053;-62
2022/09/07 04:35:54;;;;;;;3.30;0.10;;;22.00;58.10;;;;;;5050291;28;20045;-62
2022/09/07 04:38:21;;;;;;;2.83;0.10;;;22.00;58.20;;;;;;5050668;28;20053;-61
2022/09/07 04:40:48;;;;;;;2.28;0.10;;;22.00;58.20;;;;;;5032020;28;20056;-61
2022/09/07 04:43:17;;;;;;;4.40;0.10;;;21.90;58.80;;;;;;5055390;28;20449;-61
2022/09/07 04:45:44;;;;;;;2.75;0.30;;;22.00;58.40;;;;;;5050369;28;20045;-61
2022/09/07 04:48:11;;;;;;;1.75;0.10;;;22.00;58.50;;;;;;5049840;28;20041;-62
2022/09/07 04:50:38;;;;;;;2.20;0.40;;;21.90;58.50;;;;;;5050346;28;20041;-61
2022/09/07 04:53:05;;;;;;;8.23;0.20;;;21.90;58.50;;;;;;5050158;28;20107;-61
2022/09/07 04:55:32;;;;;;;4.80;0.10;;;21.90;58.50;;;;;;5049828;28;20075;-60
2022/09/07 04:57:59;;;;;;;3.78;0.20;;;21.90;58.60;;;;;;5049844;28;20501;-61
2022/09/07 05:00:28;;;;;;;1.98;1.05;;;21.90;58.60;;;;;;5042857;28;20052;-60
2022/09/07 05:02:55;;;;;;;3.30;0.10;;;21.90;58.70;;;;;;5049446;28;20552;-62
2022/09/07 05:05:22;;;;;;;1.80;0.17;;;21.90;58.80;;;;;;5056514;28;20048;-62
2022/09/07 05:07:49;;;;;;;3.70;0.20;;;21.80;59.30;;;;;;5050427;28;20606;-61
2022/09/07 05:10:16;;;;;;;4.57;0.20;;;21.80;58.80;;;;;;5050838;28;20047;-62
2022/09/07 05:12:43;;;;;;;0.57;0.10;;;21.80;58.90;;;;;;5051122;28;20148;-62
2022/09/07 05:15:10;;;;;;;0.63;0.20;;;21.80;59.00;;;;;;5042103;28;20040;-69
2022/09/07 05:17:39;;;;;;;1.00;0.20;;;21.80;59.10;;;;;;5044232;28;20498;-65
2022/09/07 05:20:07;;;;;;;3.08;0.10;;;21.80;59.30;;;;;;5049436;28;20041;-72
2022/09/07 05:22:39;;;;;;;3.83;0.10;;;21.70;59.40;;;;;;5028829;28;20089;-62
2022/09/07 05:25:07;;;;;;;3.85;1.10;;;21.80;59.50;;;;;;5033861;28;20113;-54
2022/09/07 05:27:34;;;;;;;5.97;0.38;;;21.80;60.00;;;;;;5048827;28;20055;-59
2022/09/07 05:30:01;;;;;;;0.57;0.43;;;22.00;60.90;;;;;;5049756;28;20490;-56
2022/09/07 05:32:28;;;;;;;1.15;0.40;;;22.20;60.40;;;;;;5052872;28;20137;-54
2022/09/07 05:34:57;;;;;;;4.78;1.48;;;22.50;60.30;;;;;;5052557;28;20090;-55
2022/09/07 05:37:24;;;;;;;3.67;0.40;;;22.70;60.00;;;;;;5050998;28;20049;-57
2022/09/07 05:39:53;;;;;;;0.52;0.00;;;22.90;59.60;;;;;;5039729;28;20049;-57
2022/09/07 05:42:21;;;;;;;2.30;0.52;;;23.10;59.20;;;;;;5048303;28;20401;-62
2022/09/07 05:44:48;;;;;;;3.13;0.47;;;23.40;58.90;;;;;;5041770;28;20119;-62
2022/09/07 05:47:15;;;;;;;0.45;0.22;;;23.50;58.40;;;;;;5048189;28;20037;-61
2022/09/07 05:49:42;;;;;;;3.78;0.85;;;23.70;58.10;;;;;;5048097;28;20125;-60
2022/09/07 05:52:11;;;;;;;0.30;0.10;;;23.90;57.80;;;;;;5048284;28;20048;-58
2022/09/07 05:54:38;;;;;;;0.47;0.10;;;24.10;57.40;;;;;;5048924;28;20056;-57
2022/09/07 05:57:05;;;;;;;3.13;0.10;;;24.20;57.00;;;;;;5041255;28;20042;-56
2022/09/07 05:59:33;;;;;;;0.47;0.10;;;24.40;56.70;;;;;;5045117;28;20151;-60
2022/09/07 06:02:00;;;;;;;1.25;0.10;;;24.50;56.30;;;;;;5035232;28;20120;-60
2022/09/07 06:04:27;;;;;;;0.45;0.10;;;24.60;56.60;;;;;;5031927;28;20045;-67
2022/09/07 06:06:54;;;;;;;1.25;0.15;;;24.80;55.80;;;;;;5047944;28;20135;-59
2022/09/07 06:09:23;;;;;;;1.17;0.00;;;24.90;55.60;;;;;;5047982;28;20524;-64
2022/09/07 06:11:50;;;;;;;2.53;0.95;;;25.00;55.30;;;;;;5029455;28;20052;-65
2022/09/07 06:14:17;;;;;;;0.68;0.10;;;25.10;55.00;;;;;;5047144;28;20050;-72
2022/09/07 06:16:45;;;;;;;3.50;0.20;;;25.20;54.80;;;;;;5026331;28;20052;-73
2022/09/07 06:19:12;;;;;;;1.63;0.17;;;25.30;54.60;;;;;;5041473;28;20056;-71
2022/09/07 06:21:39;;;;;;;2.40;0.10;;;25.30;54.40;;;;;;5044975;28;20131;-64
2022/09/07 06:24:06;;;;;;;0.13;0.10;;;25.40;54.20;;;;;;5047904;28;20192;-60
2022/09/07 06:26:35;;;;;;;1.15;0.10;;;25.50;54.00;;;;;;5048265;28;20041;-65
2022/09/07 06:29:03;;;;;;;0.95;0.10;;;25.60;53.90;;;;;;5053170;28;20064;-64
2022/09/07 06:31:30;;;;;;;1.05;0.25;;;25.70;53.90;;;;;;5044553;28;20044;-62
2022/09/07 06:33:57;;;;;;;1.10;0.10;;;25.70;53.70;;;;;;5043757;28;20045;-67
2022/09/07 06:36:26;;;;;;;1.88;0.35;;;25.70;53.60;;;;;;5049465;28;20508;-67
2022/09/07 06:38:55;;;;;;;0.93;0.45;;;25.80;53.50;;;;;;5045914;28;20207;-67
2022/09/07 06:41:24;;;;;;;2.70;0.30;;;25.90;53.30;;;;;;5048398;28;20060;-68
2022/09/07 06:43:53;;;;;;;3.05;0.10;;;26.00;53.20;;;;;;5045887;28;20153;-68
2022/09/07 06:46:20;;;;;;;2.85;0.47;;;26.00;53.00;;;;;;5046692;28;20045;-68
2022/09/07 06:48:47;;;;;;;0.40;0.15;;;26.10;52.90;;;;;;5047807;28;20087;-67
2022/09/07 06:51:18;;;;;;;0.25;0.20;;;26.20;52.80;;;;;;5044456;28;20037;-67
2022/09/07 06:53:46;;;;;;;1.15;0.15;;;26.20;52.70;;;;;;5047165;28;20052;-68
2022/09/07 06:56:15;;;;;;;3.78;0.20;;;26.20;52.50;;;;;;5047426;28;20060;-67
2022/09/07 06:58:43;;;;;;;1.05;0.10;;;26.30;52.40;;;;;;5047868;28;20513;-66
2022/09/07 07:01:14;;;;;;;1.95;0.10;;;26.30;52.30;;;;;;5049354;28;20041;-67
2022/09/07 07:03:42;;;;;;;1.65;0.10;;;26.40;52.20;;;;;;5046452;28;20133;-68
2022/09/07 07:06:10;;;;;;;0.98;0.40;;;26.40;52.10;;;;;;5047426;28;20040;-68
2022/09/07 07:08:37;;;;;;;1.98;0.10;;;26.40;51.90;;;;;;5048598;28;20533;-67
2022/09/07 07:11:06;;;;;;;4.45;0.30;;;26.50;51.90;;;;;;5052223;28;20051;-70
2022/09/07 07:13:34;;;;;;;1.23;0.30;;;26.50;51.80;;;;;;5029620;28;20052;-68
2022/09/07 07:16:03;;;;;;;1.85;0.20;;;26.60;51.80;;;;;;5047404;28;20120;-69
2022/09/07 07:18:33;;;;;;;2.75;0.40;;;26.60;51.60;;;;;;5047080;28;20417;-63
2022/09/07 07:21:02;;;;;;;2.65;0.40;;;26.70;51.50;;;;;;5029159;28;20052;-59
2022/09/07 07:23:30;;;;;;;5.50;0.45;;;26.80;51.50;;;;;;5047859;28;20186;-65
2022/09/07 07:26:01;;;;;;;2.53;0.20;;;26.90;51.40;;;;;;5029242;28;20087;-65
2022/09/07 07:28:29;;;;;;;2.00;0.20;;;26.90;51.30;;;;;;5051601;28;20048;-64
2022/09/07 07:30:56;;;;;;;1.10;0.85;;;27.00;51.20;;;;;;5030582;28;20103;-70
2022/09/07 07:33:23;;;;;;;4.78;0.57;;;27.00;51.10;;;;;;5032002;28;20148;-64
2022/09/07 07:35:52;;;;;;;2.88;0.38;;;27.10;51.10;;;;;;5053179;28;20796;-63
2022/09/07 07:38:19;;;;;;;3.42;0.50;;;27.20;51.10;;;;;;5046432;28;20153;-64
2022/09/07 07:40:53;;;;;;;2.25;0.60;;;27.30;51.00;;;;;;5048377;28;20506;-60
2022/09/07 07:43:20;;;;;;;1.38;0.55;;;27.30;50.80;;;;;;5042458;28;20041;-60
2022/09/07 07:45:47;;;;;;;1.42;0.22;;;27.40;50.80;;;;;;5048125;28;20470;-59
2022/09/07 07:48:14;;;;;;;2.00;0.10;;;27.50;50.70;;;;;;5044476;28;20072;-61
2022/09/07 07:50:41;;;;;;;2.88;0.20;;;27.50;50.50;;;;;;5049873;28;20822;-61
2022/09/07 07:53:10;;;;;;;1.67;0.35;;;27.60;50.40;;;;;;5047495;28;20052;-60
2022/09/07 07:55:37;;;;;;;2.60;0.20;;;27.70;50.30;;;;;;5049982;28;20037;-62
2022/09/07 07:58:04;;;;;;;3.47;0.70;;;27.70;50.20;;;;;;5048142;28;20564;-70
2022/09/07 08:00:31;;;;;;;2.15;0.22;;;27.80;50.10;;;;;;5039598;28;20115;-62
2022/09/07 08:03:01;;;;;;;2.00;0.13;;;27.90;50.10;;;;;;5046251;28;20111;-67
2022/09/07 08:05:28;;;;;;;3.70;0.50;;;27.90;50.00;;;;;;5054076;28;20128;-64
2022/09/07 08:07:55;;;;;;;2.97;0.20;;;27.90;50.50;;;;;;5050674;28;20120;-67
2022/09/07 08:10:25;;;;;;;2.70;0.50;;;28.00;49.80;;;;;;5049401;28;20124;-59
2022/09/07 08:12:53;;;;;;;3.75;0.43;;;28.10;49.70;;;;;;5053140;28;20124;-59
2022/09/07 08:15:20;;;;;;;1.33;0.22;;;28.10;49.60;;;;;;5027766;28;20497;-58
2022/09/07 08:17:48;;;;;;;10.88;0.20;;;28.20;49.60;;;;;;5029629;28;20523;-64
2022/09/07 08:20:15;;;;;;;4.55;0.30;;;28.20;49.40;;;;;;5053368;28;20140;-65
2022/09/07 08:22:43;;;;;;;3.63;0.40;;;28.30;49.30;;;;;;5037408;28;20446;-61
2022/09/07 08:25:10;;;;;;;2.55;0.20;;;28.30;49.20;;;;;;5033915;28;20076;-66
2022/09/07 08:27:38;;;;;;;3.10;0.25;;;28.40;49.20;;;;;;5035670;28;20497;-63
2022/09/07 08:30:07;;;;;;;1.33;0.17;;;28.40;49.10;;;;;;5048751;28;20044;-64
2022/09/07 08:32:34;;;;;;;6.20;0.25;;;28.50;49.00;;;;;;5052496;28;20045;-66
2022/09/07 08:35:01;;;;;;;12.90;0.90;;;28.40;47.80;;;;;;5052771;28;20055;-56
2022/09/07 08:37:28;;;;;;;2.80;0.52;;;28.30;47.40;;;;;;5050082;28;20044;-61
2022/09/07 08:39:55;;;;;;;5.47;0.95;;;28.00;47.40;;;;;;5054670;28;20033;-60
2022/09/07 08:42:43;;;;;;;5.90;0.55;;;27.80;47.50;;;;;;5050242;28;20461;-58
2022/09/07 08:45:14;;;;;;;5.18;0.63;;;27.50;47.80;;;;;;5050318;28;20536;-59
2022/09/07 08:47:43;;;;;;;10.88;0.77;;;27.30;48.20;;;;;;5037437;28;20041;-59
2022/09/07 08:50:14;;;;;;;5.78;0.30;;;27.20;48.50;;;;;;5049934;28;20516;-56
2022/09/07 08:52:48;;;;;;;3.22;0.57;;;27.00;49.30;;;;;;5032091;28;20060;-57
2022/09/07 08:55:20;;;;;;;6.32;0.50;;;26.90;49.50;;;;;;5051526;28;20052;-66
2022/09/07 08:57:56;;;;;;;2.90;0.35;;;26.80;49.20;;;;;;5049564;28;20870;-64
2022/09/07 09:00:23;;;;;;;9.35;1.13;;;26.70;49.60;;;;;;5040327;28;20144;-56
2022/09/07 09:02:50;;;;;;;1.50;0.22;;;26.60;49.70;;;;;;5047285;28;20522;-66
2022/09/07 09:05:28;;;;;;;6.18;1.20;;;26.50;50.00;;;;;;5050049;28;20127;-62
2022/09/07 09:08:18;;;;;;;6.85;0.50;;;26.50;50.30;;;;;;5047444;28;20419;-64
2022/09/07 09:10:54;;;;;;;3.80;0.20;;;26.50;50.40;;;;;;5045044;28;20041;-61
2022/09/07 09:13:34;;;;;;;2.38;0.40;;;26.40;50.50;;;;;;5050887;28;20071;-65
2022/09/07 09:16:05;;;;;;;3.97;0.63;;;26.40;50.70;;;;;;5048854;28;20029;-62
2022/09/07 09:18:54;;;;;;;5.55;0.50;;;26.40;50.60;;;;;;5049233;28;20127;-61
2022/09/07 09:21:21;;;;;;;7.38;0.40;;;26.40;50.50;;;;;;5043176;28;20045;-62
2022/09/07 09:23:52;;;;;;;6.57;0.75;;;26.30;50.70;;;;;;5049115;28;20041;-70
2022/09/07 09:26:23;;;;;;;6.45;0.47;;;26.30;50.90;;;;;;5049030;28;20044;-65
2022/09/07 09:28:52;;;;;;;6.15;0.25;;;26.30;50.80;;;;;;5029188;28;20468;-66
2022/09/07 09:31:21;;;;;;;6.28;0.80;;;26.30;50.80;;;;;;5049511;28;20123;-58
2022/09/07 09:34:09;;;;;;;5.97;0.52;;;26.20;50.80;;;;;;5053636;28;20508;-55
2022/09/07 09:36:41;;;;;;;5.93;1.13;;;26.20;50.80;;;;;;5052925;28;20136;-57
2022/09/07 09:39:25;;;;;;;5.53;0.68;;;26.20;51.00;;;;;;5049156;28;20532;-62
2022/09/07 09:41:53;;;;;;;5.05;0.47;;;26.20;51.00;;;;;;5045830;28;20044;-61
2022/09/07 09:44:22;;;;;;;6.50;0.50;;;26.20;51.00;;;;;;5041845;28;20034;-58
2022/09/07 09:46:53;;;;;;;6.65;0.90;;;26.20;51.00;;;;;;5048459;28;20451;-60
2022/09/07 09:49:24;;;;;;;34.25;1.17;;;26.20;50.90;;;;;;5050592;28;20043;-66
2022/09/07 09:51:55;;;;;;;12.25;0.60;;;26.20;50.90;;;;;;5044066;28;20064;-66
2022/09/07 09:54:26;;;;;;;6.80;0.60;;;26.20;50.70;;;;;;5049936;28;20033;-62
2022/09/07 09:56:53;;;;;;;5.30;0.63;;;26.20;50.70;;;;;;5055745;28;20049;-57
2022/09/07 09:59:28;;;;;;;5.70;0.45;;;26.20;50.50;;;;;;5048374;28;20055;-59
2022/09/07 10:01:55;;;;;;;5.25;1.05;;;26.20;50.30;;;;;;5049753;28;20045;-48
2022/09/07 10:04:31;;;;;;;3.72;0.50;;;26.20;50.30;;;;;;5049894;28;20124;-49
2022/09/07 10:07:07;;;;;;;3.72;0.40;;;26.20;50.10;;;;;;5046493;28;20047;-49
2022/09/07 10:09:36;;;;;;;5.85;0.40;;;26.10;49.90;;;;;;5048191;28;20536;-49
2022/09/07 10:12:05;;;;;;;6.95;0.85;;;26.10;49.80;;;;;;5030515;28;20485;-53
2022/09/07 10:14:36;;;;;;;8.48;1.60;;;26.10;49.70;;;;;;5051778;28;20055;-50
2022/09/07 10:17:18;;;;;;;3.25;0.40;;;26.10;49.70;;;;;;5053289;28;20037;-53
2022/09/07 10:19:45;;;;;;;6.65;0.50;;;26.10;49.50;;;;;;5043815;28;20139;-50
2022/09/07 10:22:29;;;;;;;7.32;0.45;;;26.10;49.60;;;;;;5047921;28;20055;-49
2022/09/07 10:24:56;;;;;;;6.65;1.00;;;26.10;49.40;;;;;;5047814;28;20082;-50
2022/09/07 10:27:32;;;;;;;9.25;0.50;;;26.10;49.50;;;;;;5037857;28;20073;-51
2022/09/07 10:30:01;;;;;;;13.15;2.13;;;26.10;49.60;;;;;;5043819;28;20479;-53
2022/09/07 10:32:51;;;;;;;6.75;1.10;;;26.10;49.70;;;;;;5045114;28;20119;-52
2022/09/07 10:35:24;;;;;;;5.53;1.02;;;26.10;49.60;;;;;;5041964;28;20073;-52
2022/09/07 10:38:05;;;;;;;5.60;0.50;;;26.00;49.80;;;;;;5047880;28;20052;-49
2022/09/07 10:40:35;;;;;;;7.00;0.68;;;25.90;49.90;;;;;;5044628;28;20079;-50
2022/09/07 10:43:16;;;;;;;9.18;1.38;;;25.80;50.10;;;;;;5047293;28;20056;-50
2022/09/07 10:45:55;;;;;;;5.15;0.40;;;25.80;50.30;;;;;;5046138;28;20459;-52
2022/09/07 10:48:29;;;;;;;3.67;0.30;;;25.70;50.30;;;;;;5041996;28;20044;-49
2022/09/07 10:50:59;;;;;;;12.70;1.77;;;25.60;50.30;;;;;;5043748;28;20045;-52
2022/09/07 10:53:42;;;;;;;5.78;0.40;;;25.60;50.60;;;;;;5045309;28;20408;-50
2022/09/07 10:56:14;;;;;;;13.02;1.90;;;25.50;50.60;;;;;;5050333;28;20123;-51
2022/09/07 10:58:56;;;;;;;6.43;0.30;;;25.50;50.70;;;;;;5053078;28;20136;-52
2022/09/07 11:01:31;;;;;;;4.55;0.50;;;25.50;50.10;;;;;;5055584;28;20041;-50
2022/09/07 11:04:10;;;;;;;3.30;0.30;;;25.50;49.80;;;;;;5040876;28;20519;-51
2022/09/07 11:06:40;;;;;;;5.43;0.45;;;25.40;49.40;;;;;;5049154;28;20052;-53
2022/09/07 11:09:31;;;;;;;3.78;0.95;;;25.40;49.00;;;;;;5052373;28;20064;-52
2022/09/07 11:12:04;;;;;;;7.00;0.70;;;25.40;48.80;;;;;;5049612;28;20048;-51
2022/09/07 11:14:36;;;;;;;6.60;0.57;;;25.40;48.70;;;;;;5052652;28;20033;-55
2022/09/07 11:17:11;;;;;;;5.90;0.93;;;25.40;48.60;;;;;;5053363;28;20036;-51
2022/09/07 11:19:46;;;;;;;3.65;0.45;;;25.30;48.60;;;;;;5047856;28;20072;-50
2022/09/07 11:22:19;;;;;;;1.02;0.20;;;25.30;48.60;;;;;;5047633;28;20048;-49
2022/09/07 11:24:50;;;;;;;6.88;0.20;;;25.30;48.60;;;;;;5047457;28;20059;-53
2022/09/07 11:27:25;;;;;;;3.80;0.30;;;25.30;48.50;;;;;;5049271;28;20041;-49
2022/09/07 11:29:59;;;;;;;14.02;0.55;;;25.30;48.40;;;;;;5051418;28;20084;-52
2022/09/07 11:32:31;;;;;;;6.45;0.60;;;25.30;48.60;;;;;;5030620;28;20052;-51
2022/09/07 11:35:07;;;;;;;3.63;0.50;;;25.30;48.70;;;;;;5051642;28;20044;-51
2022/09/07 11:37:42;;;;;;;2.95;0.85;;;25.30;48.90;;;;;;5034039;28;20420;-50
2022/09/07 11:40:20;;;;;;;3.60;0.20;;;25.30;49.00;;;;;;5056424;28;20678;-51
2022/09/07 11:42:54;;;;;;;2.25;0.40;;;25.30;49.20;;;;;;5041940;28;20486;-50
2022/09/07 11:45:28;;;;;;;3.65;0.52;;;25.20;49.20;;;;;;5034186;28;20509;-48
2022/09/07 11:48:01;;;;;;;11.73;1.33;;;25.20;49.20;;;;;;5046778;28;20037;-48
2022/09/07 11:50:33;;;;;;;2.95;0.15;;;25.20;49.30;;;;;;5047250;28;20450;-52
2022/09/07 11:53:07;;;;;;;6.35;0.68;;;25.20;49.40;;;;;;5048098;28;20042;-51
2022/09/07 11:55:37;;;;;;;7.60;0.65;;;25.20;49.50;;;;;;5051899;28;20581;-52
2022/09/07 11:58:26;;;;;;;5.28;0.82;;;25.10;49.50;;;;;;5046869;28;20493;-49
2022/09/07 12:01:05;;;;;;;6.05;0.20;;;25.20;49.60;;;;;;5051297;28;20126;-50
2022/09/07 12:03:56;;;;;;;7.43;0.68;;;25.10;49.70;;;;;;5053002;28;20142;-50
2022/09/07 12:06:54;;;;;;;3.33;0.30;;;25.10;49.70;;;;;;5057513;28;20049;-49
2022/09/07 12:09:38;;;;;;;4.45;0.43;;;25.10;49.70;;;;;;5051020;28;20152;-51
2022/09/07 12:12:36;;;;;;;5.30;0.30;;;25.10;49.80;;;;;;5050357;28;20119;-51
2022/09/07 12:15:18;;;;;;;8.95;0.28;;;25.10;50.30;;;;;;4979595;28;20749;-49
2022/09/07 12:17:59;;;;;;;3.15;0.20;;;25.00;49.70;;;;;;4973675;28;20498;-49
2022/09/07 12:20:38;;;;;;;4.70;0.45;;;25.00;49.70;;;;;;4963580;28;20047;-48
2022/09/07 12:23:17;;;;;;;6.47;0.25;;;25.00;49.70;;;;;;4970454;28;21602;-51
2022/09/07 12:25:46;;;;;;;3.10;0.20;;;25.00;49.60;;;;;;4943559;28;20046;-48
2022/09/07 12:28:17;;;;;;;11.63;0.52;;;25.00;49.50;;;;;;4961818;28;20049;-59
2022/09/07 12:30:55;;;;;;;3.25;0.38;;;25.00;49.30;;;;;;4969383;28;20649;-50
2022/09/07 12:33:35;;;;;;;3.65;0.45;;;25.00;49.50;;;;;;4960517;28;20054;-50
2022/09/07 12:36:39;;;;;;;1.80;0.28;;;25.00;49.70;;;;;;4967324;28;20043;-52
2022/09/07 12:39:22;;;;;;;3.22;0.30;;;25.00;49.90;;;;;;4966336;28;20641;-50
2022/09/07 12:41:52;;;;;;;14.68;0.82;;;24.90;50.30;;;;;;4968236;28;20070;-49
2022/09/07 12:44:22;;;;;;;8.75;0.88;;;24.90;50.60;;;;;;4965383;28;20070;-49
2022/09/07 12:46:57;;;;;;;4.65;0.47;;;24.90;50.90;;;;;;4951646;28;20118;-51
2022/09/07 12:49:55;;;;;;;5.23;0.20;;;24.80;50.70;;;;;;4968780;28;20058;-52
2022/09/07 12:52:48;;;;;;;1.75;0.20;;;24.80;50.70;;;;;;5025161;28;20136;-50
2022/09/07 12:55:56;;;;;;;6.40;0.28;;;24.80;50.90;;;;;;5049133;28;20056;-51
2022/09/07 12:58:35;;;;;;;5.38;0.22;;;24.70;51.40;;;;;;5049311;28;20650;-49
2022/09/07 13:01:16;;;;;;;2.33;0.10;;;24.60;51.90;;;;;;5044916;28;20052;-49
2022/09/07 13:04:01;;;;;;;2.67;0.10;;;24.50;52.70;;;;;;5046951;28;20079;-50
2022/09/07 13:06:42;;;;;;;2.90;0.10;;;24.50;53.10;;;;;;5048039;28;20041;-51
2022/09/07 13:09:31;;;;;;;6.15;0.65;;;24.40;53.40;;;;;;5044694;28;20480;-55